createdAt,value
2018-09-18T00:01:52.204Z,99.90
2018-09-18T00:04:21.304Z,99.90
2018-09-18T00:06:50.448Z,99.90
2018-09-18T00:09:19.578Z,99.90
2018-09-18T00:11:48.669Z,99.90
2018-09-18T00:14:17.770Z,99.90
2018-09-18T00:16:46.909Z,99.90
2018-09-18T00:19:16.099Z,99.90
2018-09-18T00:21:45.178Z,99.90
2018-09-18T00:24:14.284Z,99.90
2018-09-18T00:26:43.365Z,99.90
2018-09-18T00:29:12.487Z,99.90
2018-09-18T00:31:41.617Z,99.90
2018-09-18T00:34:10.701Z,99.90
2018-09-18T00:36:39.788Z,99.90
2018-09-18T00:39:09.673Z,99.90
2018-09-18T00:41:38.926Z,99.90
2018-09-18T00:44:08.064Z,99.90
2018-09-18T00:46:37.181Z,99.90
2018-09-18T00:49:06.299Z,99.90
2018-09-18T00:51:35.416Z,99.90
2018-09-18T00:54:04.487Z,99.90
2018-09-18T00:56:33.576Z,99.90
2018-09-18T00:59:02.645Z,99.90
2018-09-18T01:01:31.723Z,99.90
2018-09-18T01:04:00.922Z,99.90
2018-09-18T01:06:30.030Z,99.90
2018-09-18T01:08:59.110Z,99.90
2018-09-18T01:11:28.285Z,99.90
2018-09-18T01:13:57.518Z,99.90
2018-09-18T01:16:26.751Z,99.90
2018-09-18T01:18:55.828Z,99.90
2018-09-18T01:21:24.912Z,99.90
2018-09-18T01:23:54.078Z,99.90
2018-09-18T01:26:23.152Z,99.90
2018-09-18T01:28:52.204Z,99.90
2018-09-18T01:31:21.295Z,99.90
2018-09-18T01:33:50.380Z,99.90
2018-09-18T01:36:19.510Z,99.90
2018-09-18T01:38:48.634Z,99.90
2018-09-18T01:41:17.706Z,99.90
2018-09-18T01:43:47.060Z,99.90
2018-09-18T01:46:16.146Z,99.90
2018-09-18T01:48:45.227Z,99.90
2018-09-18T01:51:14.339Z,99.90
2018-09-18T01:53:43.441Z,99.90
2018-09-18T01:56:12.574Z,99.90
2018-09-18T01:58:41.690Z,99.90
2018-09-18T02:01:10.855Z,99.90
2018-09-18T02:03:39.970Z,99.90
2018-09-18T02:06:09.047Z,99.90
2018-09-18T02:08:39.431Z,99.90
2018-09-18T02:11:08.509Z,99.90
2018-09-18T02:13:37.607Z,99.90
2018-09-18T02:16:06.741Z,99.90
2018-09-18T02:18:35.853Z,99.90
2018-09-18T02:21:04.945Z,99.90
2018-09-18T02:23:34.019Z,99.90
2018-09-18T02:26:03.109Z,99.90
2018-09-18T02:28:32.211Z,99.90
2018-09-18T02:31:01.273Z,99.90
2018-09-18T02:33:30.345Z,99.90
2018-09-18T02:35:59.458Z,99.90
2018-09-18T02:38:28.569Z,99.90
2018-09-18T02:40:57.653Z,99.90
2018-09-18T02:43:26.782Z,99.90
2018-09-18T02:45:56.061Z,99.90
2018-09-18T02:48:25.123Z,99.90
2018-09-18T02:50:54.247Z,99.90
2018-09-18T02:53:23.328Z,99.90
2018-09-18T02:55:52.435Z,99.90
2018-09-18T02:58:21.589Z,99.90
2018-09-18T03:00:50.690Z,99.90
2018-09-18T03:03:19.764Z,99.90
2018-09-18T03:05:48.887Z,99.90
2018-09-18T03:08:17.987Z,99.90
2018-09-18T03:10:47.105Z,99.90
2018-09-18T03:13:16.169Z,99.90
2018-09-18T03:15:45.365Z,99.90
2018-09-18T03:18:15.189Z,99.90
2018-09-18T03:20:44.307Z,99.90
2018-09-18T03:23:13.404Z,99.90
2018-09-18T03:25:42.509Z,99.90
2018-09-18T03:28:11.634Z,99.90
2018-09-18T03:30:40.753Z,99.90
2018-09-18T03:33:09.880Z,99.90
2018-09-18T03:35:39.056Z,99.90
2018-09-18T03:38:08.216Z,99.90
2018-09-18T03:40:37.326Z,99.90
2018-09-18T03:43:06.445Z,99.90
2018-09-18T03:45:36.597Z,99.90
2018-09-18T03:48:06.509Z,99.90
2018-09-18T03:50:35.616Z,99.90
2018-09-18T03:53:04.714Z,99.90
2018-09-18T03:55:33.772Z,99.90
2018-09-18T03:58:02.874Z,99.90
2018-09-18T04:00:31.954Z,99.90
2018-09-18T04:03:01.048Z,99.90
2018-09-18T04:05:30.181Z,99.90
2018-09-18T04:07:59.219Z,99.90
2018-09-18T04:10:28.319Z,99.90
2018-09-18T04:12:57.413Z,99.90
2018-09-18T04:15:26.515Z,99.90
2018-09-18T04:17:55.840Z,99.90
2018-09-18T04:20:24.971Z,99.90
2018-09-18T04:22:54.040Z,99.90
2018-09-18T04:25:23.100Z,99.90
2018-09-18T04:27:52.204Z,99.90
2018-09-18T04:30:21.270Z,99.90
2018-09-18T04:32:50.338Z,99.90
2018-09-18T04:35:19.434Z,99.90
2018-09-18T04:37:48.593Z,99.90
2018-09-18T04:40:17.685Z,99.90
2018-09-18T04:42:46.738Z,99.90
2018-09-18T04:45:15.849Z,99.90
2018-09-18T04:47:44.932Z,99.90
2018-09-18T04:50:14.175Z,99.90
2018-09-18T04:52:43.276Z,99.90
2018-09-18T04:55:12.371Z,99.90
2018-09-18T04:57:41.470Z,99.90
2018-09-18T05:00:10.831Z,99.90
2018-09-18T05:02:40.110Z,99.90
2018-09-18T05:05:09.502Z,99.90
2018-09-18T05:07:38.582Z,99.90
2018-09-18T05:10:07.694Z,99.90
2018-09-18T05:12:36.777Z,99.90
2018-09-18T05:15:05.868Z,99.90
2018-09-18T05:17:34.973Z,99.90
2018-09-18T05:20:04.098Z,99.90
2018-09-18T05:22:33.216Z,99.90
2018-09-18T05:25:02.288Z,99.90
2018-09-18T05:27:31.393Z,99.90
2018-09-18T05:30:00.489Z,99.90
2018-09-18T05:32:29.555Z,99.90
2018-09-18T05:34:58.639Z,99.90
2018-09-18T05:37:27.732Z,99.90
2018-09-18T05:39:56.846Z,99.90
2018-09-18T05:42:25.946Z,99.90
2018-09-18T05:44:55.102Z,99.90
2018-09-18T05:47:24.234Z,99.90
2018-09-18T05:49:53.364Z,99.90
2018-09-18T05:52:22.654Z,99.90
2018-09-18T05:54:51.776Z,99.90
2018-09-18T05:57:20.892Z,99.90
2018-09-18T05:59:49.989Z,99.90
2018-09-18T06:02:19.193Z,99.90
2018-09-18T06:04:48.200Z,99.90
2018-09-18T06:07:17.330Z,99.90
2018-09-18T06:09:46.423Z,99.90
2018-09-18T06:12:15.516Z,99.90
2018-09-18T06:14:44.646Z,99.90
2018-09-18T06:17:13.753Z,99.90
2018-09-18T06:19:42.968Z,99.90
2018-09-18T06:22:12.093Z,99.90
2018-09-18T06:24:41.195Z,99.90
2018-09-18T06:27:10.274Z,99.90
2018-09-18T06:29:39.406Z,99.90
2018-09-18T06:32:08.831Z,99.90
2018-09-18T06:34:37.975Z,99.90
2018-09-18T06:37:07.289Z,99.90
2018-09-18T06:39:36.403Z,99.90
2018-09-18T06:42:05.450Z,99.90
2018-09-18T06:44:34.525Z,99.90
2018-09-18T06:47:03.647Z,99.90
2018-09-18T06:49:32.728Z,99.90
2018-09-18T06:52:01.876Z,99.90
2018-09-18T06:54:31.314Z,99.90
2018-09-18T06:57:00.366Z,99.90
2018-09-18T06:59:29.429Z,99.90
2018-09-18T07:01:58.531Z,99.90
2018-09-18T07:04:27.611Z,99.90
2018-09-18T07:06:56.727Z,99.90
2018-09-18T07:09:25.857Z,99.90
2018-09-18T07:11:54.951Z,99.90
2018-09-18T07:14:24.051Z,99.90
2018-09-18T07:16:53.276Z,99.90
2018-09-18T07:19:22.402Z,99.90
2018-09-18T07:21:51.538Z,99.90
2018-09-18T07:24:20.637Z,99.90
2018-09-18T07:26:49.770Z,99.90
2018-09-18T07:29:18.860Z,99.90
2018-09-18T07:31:47.970Z,99.90
2018-09-18T07:34:17.098Z,99.90
2018-09-18T07:36:46.191Z,99.90
2018-09-18T07:39:15.265Z,99.90
2018-09-18T07:41:44.361Z,99.90
2018-09-18T07:44:13.424Z,99.90
2018-09-18T07:46:42.530Z,99.90
2018-09-18T07:49:11.640Z,99.90
2018-09-18T07:51:40.976Z,99.90
2018-09-18T07:54:10.104Z,99.90
2018-09-18T07:56:39.425Z,99.90
2018-09-18T07:59:08.574Z,99.90
2018-09-18T08:01:37.714Z,99.90
2018-09-18T08:04:06.794Z,99.90
2018-09-18T08:06:35.961Z,99.90
2018-09-18T08:09:08.349Z,99.90
2018-09-18T08:11:37.612Z,99.90
2018-09-18T08:14:06.743Z,99.90
2018-09-18T08:16:35.921Z,99.90
2018-09-18T08:19:05.657Z,99.90
2018-09-18T08:21:34.903Z,99.90
2018-09-18T08:24:04.139Z,99.90
2018-09-18T08:26:33.221Z,99.90
2018-09-18T08:29:02.314Z,99.90
2018-09-18T08:31:31.375Z,99.90
2018-09-18T08:34:01.004Z,99.90
2018-09-18T08:36:30.372Z,99.90
2018-09-18T08:38:59.662Z,99.90
2018-09-18T08:41:28.773Z,99.90
2018-09-18T08:43:57.839Z,99.90
2018-09-18T08:46:26.956Z,99.90
2018-09-18T08:48:57.906Z,99.90
2018-09-18T08:51:27.605Z,99.90
2018-09-18T08:53:56.713Z,99.90
2018-09-18T08:56:25.866Z,99.90
2018-09-18T08:58:55.386Z,99.90
2018-09-18T09:01:24.536Z,99.90
2018-09-18T09:03:53.627Z,99.90
2018-09-18T09:06:22.880Z,99.90
2018-09-18T09:08:51.959Z,99.90
2018-09-18T09:11:21.506Z,99.90
2018-09-18T09:13:50.592Z,99.90
2018-09-18T09:16:19.671Z,99.90
2018-09-18T09:18:48.828Z,99.90
2018-09-18T09:21:18.002Z,99.90
2018-09-18T09:23:47.040Z,99.90
2018-09-18T09:26:16.171Z,99.90
2018-09-18T09:28:45.173Z,99.90
2018-09-18T09:31:14.257Z,99.90
2018-09-18T09:33:43.349Z,99.90
2018-09-18T09:36:12.402Z,99.90
2018-09-18T09:38:41.534Z,99.90
2018-09-18T09:41:10.596Z,99.90
2018-09-18T09:43:39.748Z,99.90
2018-09-18T09:46:08.878Z,99.90
2018-09-18T09:48:38.023Z,99.90
2018-09-18T09:51:07.435Z,99.90
2018-09-18T09:53:36.574Z,99.90
2018-09-18T09:56:05.748Z,99.90
2018-09-18T09:58:34.813Z,99.90
2018-09-18T10:01:09.440Z,99.90
2018-09-18T10:03:38.617Z,99.90
2018-09-18T10:06:07.705Z,99.90
2018-09-18T10:08:36.823Z,99.90
2018-09-18T10:11:06.040Z,99.90
2018-09-18T10:13:35.060Z,99.90
2018-09-18T10:16:04.161Z,99.90
2018-09-18T10:18:33.245Z,99.90
2018-09-18T10:21:02.351Z,99.90
2018-09-18T10:23:31.472Z,99.90
2018-09-18T10:26:00.638Z,99.90
2018-09-18T10:28:29.648Z,99.90
2018-09-18T10:30:58.764Z,99.90
2018-09-18T10:33:27.905Z,99.90
2018-09-18T10:35:56.987Z,99.90
2018-09-18T10:38:26.091Z,99.90
2018-09-18T10:40:55.891Z,99.90
2018-09-18T10:43:24.927Z,99.90
2018-09-18T10:45:54.026Z,99.90
2018-09-18T10:48:23.132Z,99.90
2018-09-18T10:50:52.225Z,99.90
2018-09-18T10:53:21.281Z,99.90
2018-09-18T10:55:50.378Z,99.90
2018-09-18T10:58:19.451Z,99.90
2018-09-18T11:00:48.511Z,99.90
2018-09-18T11:03:18.068Z,99.90
2018-09-18T11:05:47.159Z,99.90
2018-09-18T11:08:16.743Z,99.90
2018-09-18T11:10:45.780Z,99.90
2018-09-18T11:13:14.905Z,99.90
2018-09-18T11:15:44.349Z,99.90
2018-09-18T11:18:13.430Z,99.90
2018-09-18T11:20:42.531Z,99.90
2018-09-18T11:23:11.953Z,99.90
2018-09-18T11:25:41.020Z,99.90
2018-09-18T11:28:10.150Z,99.90
2018-09-18T11:30:39.258Z,99.90
2018-09-18T11:33:08.411Z,99.90
2018-09-18T11:35:37.503Z,99.90
2018-09-18T11:38:06.631Z,99.90
2018-09-18T11:40:35.761Z,99.90
2018-09-18T11:43:04.845Z,99.90
2018-09-18T11:45:34.053Z,99.90
2018-09-18T11:48:03.143Z,99.90
2018-09-18T11:50:32.240Z,99.90
2018-09-18T11:53:01.405Z,99.90
2018-09-18T11:55:30.489Z,99.90
2018-09-18T11:57:59.584Z,99.90
2018-09-18T12:00:28.739Z,99.90
2018-09-18T12:02:58.410Z,99.90
2018-09-18T12:05:27.594Z,99.90
2018-09-18T12:07:56.683Z,99.90
2018-09-18T12:10:25.772Z,99.90
2018-09-18T12:12:54.903Z,98.90
2018-09-18T12:15:23.987Z,99.10
2018-09-18T12:17:53.173Z,97.90
2018-09-18T12:20:22.281Z,98.80
2018-09-18T12:22:51.482Z,99.50
2018-09-18T12:25:20.479Z,98.40
2018-09-18T12:27:49.630Z,98.40
2018-09-18T12:30:18.723Z,97.80
2018-09-18T12:32:47.813Z,97.90
2018-09-18T12:35:16.893Z,98.60
2018-09-18T12:37:45.987Z,97.80
2018-09-18T12:40:15.061Z,97.10
2018-09-18T12:42:44.314Z,95.70
2018-09-18T12:45:13.239Z,94.60
2018-09-18T12:47:42.341Z,94.60
2018-09-18T12:50:12.776Z,93.80
2018-09-18T12:52:41.687Z,94.40
2018-09-18T12:55:10.795Z,93.50
2018-09-18T12:57:40.018Z,93.10
2018-09-18T13:00:09.110Z,92.50
2018-09-18T13:02:38.129Z,90.10
2018-09-18T13:05:07.287Z,90.10
2018-09-18T13:07:36.563Z,88.10
2018-09-18T13:10:05.692Z,87.80
2018-09-18T13:12:34.707Z,87.30
2018-09-18T13:15:03.881Z,87.40
2018-09-18T13:17:33.053Z,90.20
2018-09-18T13:20:02.061Z,89.60
2018-09-18T13:22:31.135Z,87.70
2018-09-18T13:25:00.205Z,87.50
2018-09-18T13:27:29.311Z,86.10
2018-09-18T13:29:58.391Z,85.40
2018-09-18T13:32:27.523Z,82.10
2018-09-18T13:34:56.571Z,81.20
2018-09-18T13:37:25.687Z,80.90
2018-09-18T13:39:54.797Z,79.50
2018-09-18T13:42:23.901Z,78.70
2018-09-18T13:44:52.961Z,76.60
2018-09-18T13:47:22.059Z,74.90
2018-09-18T13:49:51.154Z,75.90
2018-09-18T13:52:20.283Z,74.70
2018-09-18T13:54:49.377Z,72.20
2018-09-18T13:57:18.501Z,71.50
2018-09-18T13:59:48.360Z,71.10
2018-09-18T14:02:17.555Z,68.70
2018-09-18T14:04:46.615Z,68.00
2018-09-18T14:07:15.681Z,69.20
2018-09-18T14:09:45.825Z,69.20
2018-09-18T14:12:14.919Z,68.70
2018-09-18T14:14:44.203Z,66.00
2018-09-18T14:17:13.263Z,66.00
2018-09-18T14:19:42.325Z,65.50
2018-09-18T14:22:11.501Z,64.10
2018-09-18T14:24:40.609Z,63.80
2018-09-18T14:27:09.688Z,65.00
2018-09-18T14:29:38.772Z,63.70
2018-09-18T14:32:07.952Z,64.60
2018-09-18T14:34:36.986Z,64.10
2018-09-18T14:37:06.157Z,62.10
2018-09-18T14:39:35.257Z,61.80
2018-09-18T14:42:04.362Z,61.10
2018-09-18T14:44:33.461Z,61.50
2018-09-18T14:47:02.615Z,60.90
2018-09-18T14:49:31.673Z,61.00
2018-09-18T14:52:00.748Z,61.20
2018-09-18T14:54:29.910Z,61.30
2018-09-18T14:56:58.979Z,62.50
2018-09-18T14:59:28.067Z,61.30
2018-09-18T15:01:57.199Z,61.20
2018-09-18T15:04:26.277Z,62.20
2018-09-18T15:06:55.448Z,61.70
2018-09-18T15:09:24.444Z,61.00
2018-09-18T15:11:53.739Z,62.10
2018-09-18T15:14:22.796Z,62.30
2018-09-18T15:16:51.879Z,63.60
2018-09-18T15:19:20.991Z,65.50
2018-09-18T15:21:50.063Z,64.80
2018-09-18T15:24:19.133Z,65.70
2018-09-18T15:26:48.229Z,69.40
2018-09-18T15:29:18.029Z,72.90
2018-09-18T15:31:50.398Z,72.40
2018-09-18T15:34:19.677Z,75.50
2018-09-18T15:36:48.737Z,77.50
2018-09-18T15:39:17.862Z,77.20
2018-09-18T15:41:46.991Z,79.70
2018-09-18T15:44:16.173Z,81.60
2018-09-18T15:46:45.356Z,81.60
2018-09-18T15:51:43.165Z,82.40
2018-09-18T15:54:12.265Z,84.60
2018-09-18T15:56:41.287Z,78.00
2018-09-18T15:59:10.381Z,77.50
2018-09-18T16:01:39.457Z,76.10
2018-09-18T16:04:08.548Z,72.40
2018-09-18T16:06:37.611Z,73.30
2018-09-18T16:09:08.852Z,74.20
2018-09-18T16:11:38.515Z,73.60
2018-09-18T16:14:08.583Z,71.50
2018-09-18T16:16:37.766Z,70.50
2018-09-18T16:19:07.719Z,68.90
2018-09-18T16:21:36.710Z,68.20
2018-09-18T16:24:05.825Z,68.40
2018-09-18T16:26:34.969Z,66.50
2018-09-18T16:29:04.025Z,66.30
2018-09-18T16:31:33.159Z,66.90
2018-09-18T16:34:02.199Z,68.50
2018-09-18T16:36:31.251Z,66.20
2018-09-18T16:39:00.331Z,69.30
2018-09-18T16:41:29.407Z,70.90
2018-09-18T16:43:58.446Z,71.10
2018-09-18T16:46:27.554Z,69.60
2018-09-18T16:48:56.627Z,68.50
2018-09-18T16:51:25.698Z,70.90
2018-09-18T16:53:54.799Z,73.20
2018-09-18T16:56:23.957Z,76.20
2018-09-18T16:58:52.995Z,78.40
2018-09-18T17:01:22.077Z,79.50
2018-09-18T17:03:51.148Z,81.20
2018-09-18T17:06:20.254Z,83.00
2018-09-18T17:08:49.369Z,84.30
2018-09-18T17:11:18.455Z,84.90
2018-09-18T17:13:47.565Z,85.90
2018-09-18T17:16:16.908Z,86.60
2018-09-18T17:18:46.044Z,88.30
2018-09-18T17:21:15.116Z,88.80
2018-09-18T17:23:44.213Z,90.20
2018-09-18T17:26:13.465Z,88.70
2018-09-18T17:28:42.721Z,91.10
2018-09-18T17:31:12.501Z,92.00
2018-09-18T17:33:41.557Z,92.40
2018-09-18T17:36:10.658Z,92.80
2018-09-18T17:38:39.760Z,94.20
2018-09-18T17:41:09.232Z,94.80
2018-09-18T17:43:38.355Z,95.60
2018-09-18T17:46:07.553Z,96.90
2018-09-18T17:48:36.623Z,98.00
2018-09-18T17:51:05.723Z,99.00
2018-09-18T17:53:34.898Z,99.00
2018-09-18T17:56:03.934Z,99.00
2018-09-18T17:58:32.986Z,99.90
2018-09-18T18:01:02.011Z,99.90
2018-09-18T18:03:31.050Z,99.90
2018-09-18T18:06:00.130Z,99.90
2018-09-18T18:08:29.169Z,99.90
2018-09-18T18:10:58.883Z,99.90
2018-09-18T18:13:27.931Z,99.90
2018-09-18T18:15:56.998Z,99.90
2018-09-18T18:18:26.328Z,99.90
2018-09-18T18:20:55.471Z,99.90
2018-09-18T18:23:24.580Z,99.90
2018-09-18T18:25:53.582Z,99.90
2018-09-18T18:28:22.651Z,99.90
2018-09-18T18:30:51.739Z,99.90
2018-09-18T18:33:20.868Z,99.90
2018-09-18T18:35:49.938Z,99.90
2018-09-18T18:38:19.005Z,99.90
2018-09-18T18:40:48.125Z,99.90
2018-09-18T18:43:17.181Z,99.90
2018-09-18T18:45:46.293Z,99.90
2018-09-18T18:48:15.442Z,99.90
2018-09-18T18:50:44.493Z,99.90
2018-09-18T18:53:13.572Z,99.90
2018-09-18T18:55:42.718Z,99.90
2018-09-18T18:58:11.821Z,99.90
2018-09-18T19:00:40.968Z,99.90
2018-09-18T19:03:10.078Z,99.90
2018-09-18T19:05:39.205Z,99.90
2018-09-18T19:08:08.328Z,99.90
2018-09-18T19:10:37.455Z,99.40
2018-09-18T19:13:06.563Z,99.90
2018-09-18T19:15:35.711Z,99.90
2018-09-18T19:18:04.808Z,99.90
2018-09-18T19:20:34.026Z,99.90
2018-09-18T19:23:03.692Z,99.90
2018-09-18T19:25:32.875Z,99.90
2018-09-18T19:28:02.043Z,99.90
2018-09-18T19:30:31.163Z,99.90
2018-09-18T19:33:01.013Z,99.90
2018-09-18T19:35:30.042Z,99.90
2018-09-18T19:37:59.179Z,99.90
2018-09-18T19:40:28.212Z,99.90
2018-09-18T19:42:57.328Z,99.90
2018-09-18T19:45:26.514Z,99.90
2018-09-18T19:47:55.582Z,99.90
2018-09-18T19:50:24.871Z,99.90
2018-09-18T19:52:53.960Z,99.90
2018-09-18T19:55:23.007Z,99.90
2018-09-18T19:57:52.074Z,99.90
2018-09-18T20:00:21.170Z,99.90
2018-09-18T20:02:50.257Z,99.90
2018-09-18T20:05:19.347Z,99.90
2018-09-18T20:07:48.438Z,99.90
2018-09-18T20:10:17.537Z,99.90
2018-09-18T20:12:46.685Z,99.90
2018-09-18T20:15:15.778Z,99.90
2018-09-18T20:17:44.906Z,99.90
2018-09-18T20:20:14.220Z,99.90
2018-09-18T20:22:43.452Z,99.90
2018-09-18T20:25:12.562Z,99.90
2018-09-18T20:27:41.629Z,99.90
2018-09-18T20:30:10.733Z,99.90
2018-09-18T20:32:39.847Z,99.90
2018-09-18T20:35:08.969Z,99.90
2018-09-18T20:37:38.316Z,99.90
2018-09-18T20:40:07.487Z,99.90
2018-09-18T20:42:36.656Z,99.90
2018-09-18T20:45:05.884Z,99.90
2018-09-18T20:47:34.948Z,99.90
2018-09-18T20:50:04.100Z,99.90
2018-09-18T20:52:33.263Z,99.90
2018-09-18T20:55:02.383Z,99.90
2018-09-18T20:57:31.517Z,99.90
2018-09-18T21:00:00.682Z,99.90
2018-09-18T21:02:29.818Z,99.90
2018-09-18T21:04:58.935Z,99.90
2018-09-18T21:07:28.094Z,99.90
2018-09-18T21:09:57.157Z,99.90
2018-09-18T21:12:26.258Z,99.90
2018-09-18T21:14:55.366Z,99.90
2018-09-18T21:17:24.428Z,99.90
2018-09-18T21:19:53.502Z,99.90
2018-09-18T21:22:22.667Z,99.90
2018-09-18T21:27:02.671Z,99.90
2018-09-18T21:29:31.763Z,99.90
2018-09-18T21:32:00.849Z,99.90
2018-09-18T21:34:29.939Z,99.90
2018-09-18T21:36:59.082Z,99.90
2018-09-18T21:39:28.303Z,99.90
2018-09-18T21:41:57.405Z,99.90
2018-09-18T21:44:26.518Z,99.90
2018-09-18T21:46:55.628Z,99.90
2018-09-18T21:49:24.694Z,99.90
2018-09-18T21:51:53.753Z,99.90
2018-09-18T21:54:22.820Z,99.90
2018-09-18T21:56:51.907Z,99.90
2018-09-18T21:59:20.955Z,99.90
2018-09-18T22:01:50.051Z,99.90
2018-09-18T22:04:19.140Z,99.90
2018-09-18T22:06:48.311Z,99.90
2018-09-18T22:09:17.343Z,99.90
2018-09-18T22:11:46.443Z,99.90
2018-09-18T22:14:15.509Z,99.90
2018-09-18T22:16:44.574Z,99.90
2018-09-18T22:19:13.657Z,99.90
2018-09-18T22:21:42.718Z,99.90
2018-09-18T22:24:11.793Z,99.90
2018-09-18T22:26:40.873Z,99.90
2018-09-18T22:29:10.137Z,99.90
2018-09-18T22:31:39.235Z,99.90
2018-09-18T22:34:08.337Z,99.90
2018-09-18T22:36:37.433Z,99.90
2018-09-18T22:39:08.083Z,99.90
2018-09-18T22:41:37.184Z,99.90
2018-09-18T22:44:06.578Z,99.90
2018-09-18T22:46:35.893Z,99.90
2018-09-18T22:49:05.009Z,99.90
2018-09-18T22:51:34.127Z,99.90
2018-09-18T22:54:03.237Z,99.90
2018-09-18T22:56:32.317Z,99.90
2018-09-18T22:59:01.419Z,99.90
2018-09-18T23:01:30.489Z,99.90
2018-09-18T23:03:59.577Z,99.90
2018-09-18T23:06:28.641Z,99.90
2018-09-18T23:08:57.705Z,99.90
2018-09-18T23:11:26.769Z,99.90
2018-09-18T23:13:55.843Z,99.90
2018-09-18T23:16:24.901Z,99.90
2018-09-18T23:18:54.067Z,99.90
2018-09-18T23:21:23.050Z,99.90
2018-09-18T23:23:52.111Z,99.90
2018-09-18T23:26:21.194Z,99.90
2018-09-18T23:28:50.276Z,99.90
2018-09-18T23:31:19.519Z,99.90
2018-09-18T23:33:48.564Z,99.90
2018-09-18T23:36:17.641Z,99.90
2018-09-18T23:38:46.706Z,99.90
2018-09-18T23:41:15.825Z,99.90
2018-09-18T23:43:44.976Z,99.90
2018-09-18T23:46:14.090Z,99.90
2018-09-18T23:48:43.204Z,99.90
2018-09-18T23:51:12.288Z,99.90
2018-09-18T23:53:41.373Z,99.90
2018-09-18T23:56:11.068Z,99.90
2018-09-18T23:58:40.163Z,99.90
